sensor_id;sensor_type;location;lat;lon;timestamp;pressure;altitude;pressure_sealevel;temperature;humidity
66681;BME280;73718;51.366;12.350;2023-12-22T00:00:10;97956.28;;;4.31;100.00
66681;BME280;73718;51.366;12.350;2023-12-22T00:02:35;97904.56;;;4.31;100.00
66681;BME280;73718;51.366;12.350;2023-12-22T00:05:01;97906.34;;;4.29;100.00
66681;BME280;73718;51.366;12.350;2023-12-22T00:07:26;97907.25;;;4.28;100.00
66681;BME280;73718;51.366;12.350;2023-12-22T00:09:51;97904.63;;;4.29;100.00
66681;BME280;73718;51.366;12.350;2023-12-22T00:12:17;97919.28;;;4.29;100.00
66681;BME280;73718;51.366;12.350;2023-12-22T00:14:42;97912.47;;;4.23;100.00
66681;BME280;73718;51.366;12.350;2023-12-22T00:17:08;97910.91;;;4.16;100.00
66681;BME280;73718;51.366;12.350;2023-12-22T00:19:33;97922.94;;;4.17;100.00
66681;BME280;73718;51.366;12.350;2023-12-22T00:21:59;97923.00;;;4.14;100.00
66681;BME280;73718;51.366;12.350;2023-12-22T00:24:24;97933.53;;;4.05;100.00
66681;BME280;73718;51.366;12.350;2023-12-22T00:26:50;97934.38;;;4.05;100.00
66681;BME280;73718;51.366;12.350;2023-12-22T00:29:15;97937.88;;;4.01;100.00
66681;BME280;73718;51.366;12.350;2023-12-22T00:31:40;97926.56;;;4.07;100.00
66681;BME280;73718;51.366;12.350;2023-12-22T00:34:06;97949.00;;;4.06;100.00
66681;BME280;73718;51.366;12.350;2023-12-22T00:36:31;97937.72;;;4.10;100.00
66681;BME280;73718;51.366;12.350;2023-12-22T00:38:56;97936.72;;;4.18;100.00
66681;BME280;73718;51.366;12.350;2023-12-22T00:41:22;97952.97;;;4.23;100.00
66681;BME280;73718;51.366;12.350;2023-12-22T00:43:47;97935.81;;;4.20;100.00
66681;BME280;73718;51.366;12.350;2023-12-22T00:46:13;97942.75;;;4.18;100.00
66681;BME280;73718;51.366;12.350;2023-12-22T00:48:39;97946.97;;;4.22;100.00
66681;BME280;73718;51.366;12.350;2023-12-22T00:51:06;97962.47;;;4.22;100.00
66681;BME280;73718;51.366;12.350;2023-12-22T00:53:32;97941.78;;;4.22;100.00
66681;BME280;73718;51.366;12.350;2023-12-22T00:55:59;97946.91;;;4.25;100.00
66681;BME280;73718;51.366;12.350;2023-12-22T00:58:25;97945.13;;;4.29;100.00
66681;BME280;73718;51.366;12.350;2023-12-22T01:00:50;97966.63;;;4.31;100.00
66681;BME280;73718;51.366;12.350;2023-12-22T01:03:16;97963.97;;;4.35;100.00
66681;BME280;73718;51.366;12.350;2023-12-22T01:05:41;97958.72;;;4.38;100.00
66681;BME280;73718;51.366;12.350;2023-12-22T01:08:07;98006.84;;;4.46;100.00
66681;BME280;73718;51.366;12.350;2023-12-22T01:10:32;97979.25;;;4.48;100.00
66681;BME280;73718;51.366;12.350;2023-12-22T01:12:57;97982.97;;;4.33;100.00
66681;BME280;73718;51.366;12.350;2023-12-22T01:15:23;97983.19;;;4.21;100.00
66681;BME280;73718;51.366;12.350;2023-12-22T01:17:48;97994.59;;;4.09;100.00
66681;BME280;73718;51.366;12.350;2023-12-22T01:20:14;97988.66;;;4.04;100.00
66681;BME280;73718;51.366;12.350;2023-12-22T01:22:39;97999.03;;;4.02;100.00
66681;BME280;73718;51.366;12.350;2023-12-22T01:25:05;97989.44;;;4.07;100.00
66681;BME280;73718;51.366;12.350;2023-12-22T01:27:31;97979.91;;;4.11;100.00
66681;BME280;73718;51.366;12.350;2023-12-22T01:29:56;98007.44;;;4.12;100.00
66681;BME280;73718;51.366;12.350;2023-12-22T01:32:22;98002.31;;;4.10;100.00
66681;BME280;73718;51.366;12.350;2023-12-22T01:34:47;97998.94;;;4.08;100.00
66681;BME280;73718;51.366;12.350;2023-12-22T01:37:13;97987.66;;;4.12;100.00
66681;BME280;73718;51.366;12.350;2023-12-22T01:39:38;97998.84;;;4.13;100.00
66681;BME280;73718;51.366;12.350;2023-12-22T01:42:04;98007.41;;;4.17;100.00
66681;BME280;73718;51.366;12.350;2023-12-22T01:44:29;98010.84;;;4.17;100.00
66681;BME280;73718;51.366;12.350;2023-12-22T01:46:55;97999.56;;;4.21;100.00
66681;BME280;73718;51.366;12.350;2023-12-22T01:49:21;97999.38;;;4.32;100.00
66681;BME280;73718;51.366;12.350;2023-12-22T01:51:47;97997.59;;;4.35;100.00
66681;BME280;73718;51.366;12.350;2023-12-22T01:54:13;97989.88;;;4.32;100.00
66681;BME280;73718;51.366;12.350;2023-12-22T01:56:40;98002.75;;;4.34;100.00
66681;BME280;73718;51.366;12.350;2023-12-22T01:59:06;97991.38;;;4.43;100.00
66681;BME280;73718;51.366;12.350;2023-12-22T02:01:32;98000.03;;;4.43;100.00
66681;BME280;73718;51.366;12.350;2023-12-22T02:03:58;97991.38;;;4.43;100.00
66681;BME280;73718;51.366;12.350;2023-12-22T02:06:24;97997.50;;;4.38;100.00
66681;BME280;73718;51.366;12.350;2023-12-22T02:08:50;97986.41;;;4.33;100.00
66681;BME280;73718;51.366;12.350;2023-12-22T02:11:15;97983.97;;;4.26;100.00
66681;BME280;73718;51.366;12.350;2023-12-22T02:13:44;97992.75;;;4.17;100.00
66681;BME280;73718;51.366;12.350;2023-12-22T02:16:26;98012.69;;;4.09;100.00
66681;BME280;73718;51.366;12.350;2023-12-22T02:18:55;97980.03;;;4.05;100.00
66681;BME280;73718;51.366;12.350;2023-12-22T02:21:21;97979.16;;;4.04;100.00
66681;BME280;73718;51.366;12.350;2023-12-22T02:23:47;97951.66;;;4.02;100.00
66681;BME280;73718;51.366;12.350;2023-12-22T02:26:18;97966.31;;;4.00;100.00
66681;BME280;73718;51.366;12.350;2023-12-22T02:28:47;97957.78;;;3.96;100.00
66681;BME280;73718;51.366;12.350;2023-12-22T02:31:16;97969.94;;;3.91;100.00
66681;BME280;73718;51.366;12.350;2023-12-22T02:33:43;97960.56;;;3.85;100.00
66681;BME280;73718;51.366;12.350;2023-12-22T02:36:09;97982.13;;;3.81;100.00
66681;BME280;73718;51.366;12.350;2023-12-22T02:38:37;97971.06;;;3.75;100.00
66681;BME280;73718;51.366;12.350;2023-12-22T02:41:04;97984.03;;;3.70;100.00
66681;BME280;73718;51.366;12.350;2023-12-22T02:43:31;97976.38;;;3.67;100.00
66681;BME280;73718;51.366;12.350;2023-12-22T02:45:56;97980.66;;;3.68;100.00
66681;BME280;73718;51.366;12.350;2023-12-22T02:48:22;97993.56;;;3.68;100.00
66681;BME280;73718;51.366;12.350;2023-12-22T02:50:47;97990.09;;;3.69;100.00
66681;BME280;73718;51.366;12.350;2023-12-22T02:53:12;98007.22;;;3.75;100.00
66681;BME280;73718;51.366;12.350;2023-12-22T02:55:38;97999.44;;;3.78;100.00
66681;BME280;73718;51.366;12.350;2023-12-22T02:58:03;98002.84;;;3.80;100.00
66681;BME280;73718;51.366;12.350;2023-12-22T03:00:29;97999.31;;;3.85;100.00
66681;BME280;73718;51.366;12.350;2023-12-22T03:02:54;97986.38;;;3.87;100.00
66681;BME280;73718;51.366;12.350;2023-12-22T03:05:19;97992.38;;;3.87;100.00
66681;BME280;73718;51.366;12.350;2023-12-22T03:07:45;97998.44;;;3.86;100.00
66681;BME280;73718;51.366;12.350;2023-12-22T03:10:10;97985.53;;;3.85;100.00
66681;BME280;73718;51.366;12.350;2023-12-22T03:12:35;97997.63;;;3.83;100.00
66681;BME280;73718;51.366;12.350;2023-12-22T03:15:01;97988.13;;;3.83;100.00
66681;BME280;73718;51.366;12.350;2023-12-22T03:17:26;98013.94;;;3.85;100.00
66681;BME280;73718;51.366;12.350;2023-12-22T03:19:52;97988.91;;;3.88;100.00
66681;BME280;73718;51.366;12.350;2023-12-22T03:22:17;97995.81;;;3.89;100.00
66681;BME280;73718;51.366;12.350;2023-12-22T03:24:43;97981.19;;;3.87;100.00
66681;BME280;73718;51.366;12.350;2023-12-22T03:27:09;98008.03;;;3.77;100.00
66681;BME280;73718;51.366;12.350;2023-12-22T03:29:35;98009.78;;;3.76;100.00
66681;BME280;73718;51.366;12.350;2023-12-22T03:32:00;97977.97;;;3.73;100.00
66681;BME280;73718;51.366;12.350;2023-12-22T03:34:25;98009.84;;;3.72;100.00
66681;BME280;73718;51.366;12.350;2023-12-22T03:36:51;97984.84;;;3.75;100.00
66681;BME280;73718;51.366;12.350;2023-12-22T03:39:16;97989.19;;;3.70;100.00
66681;BME280;73718;51.366;12.350;2023-12-22T03:41:42;97985.75;;;3.71;100.00
66681;BME280;73718;51.366;12.350;2023-12-22T03:44:07;97980.59;;;3.71;100.00
66681;BME280;73718;51.366;12.350;2023-12-22T03:46:33;97980.66;;;3.68;100.00
66681;BME280;73718;51.366;12.350;2023-12-22T03:48:58;97979.72;;;3.72;100.00
66681;BME280;73718;51.366;12.350;2023-12-22T03:51:23;97975.38;;;3.74;100.00
66681;BME280;73718;51.366;12.350;2023-12-22T03:53:49;97985.72;;;3.74;100.00
66681;BME280;73718;51.366;12.350;2023-12-22T03:56:14;97997.72;;;3.77;100.00
66681;BME280;73718;51.366;12.350;2023-12-22T03:58:40;97999.41;;;3.79;100.00
66681;BME280;73718;51.366;12.350;2023-12-22T04:01:05;98007.91;;;3.86;100.00
66681;BME280;73718;51.366;12.350;2023-12-22T04:03:33;98007.88;;;3.87;100.00
66681;BME280;73718;51.366;12.350;2023-12-22T04:06:04;97994.16;;;3.84;100.00
66681;BME280;73718;51.366;12.350;2023-12-22T04:08:30;98002.88;;;3.78;100.00
66681;BME280;73718;51.366;12.350;2023-12-22T04:10:55;98018.41;;;3.75;100.00
66681;BME280;73718;51.366;12.350;2023-12-22T04:13:20;98021.81;;;3.77;100.00
66681;BME280;73718;51.366;12.350;2023-12-22T04:15:46;98027.00;;;3.76;100.00
66681;BME280;73718;51.366;12.350;2023-12-22T04:18:11;98010.75;;;3.71;100.00
66681;BME280;73718;51.366;12.350;2023-12-22T04:20:37;97996.19;;;3.65;100.00
66681;BME280;73718;51.366;12.350;2023-12-22T04:23:02;97998.00;;;3.58;100.00
66681;BME280;73718;51.366;12.350;2023-12-22T04:25:28;97992.13;;;3.49;100.00
66681;BME280;73718;51.366;12.350;2023-12-22T04:27:53;98006.84;;;3.44;100.00
66681;BME280;73718;51.366;12.350;2023-12-22T04:30:19;98000.88;;;3.38;100.00
66681;BME280;73718;51.366;12.350;2023-12-22T04:32:44;97987.19;;;3.33;100.00
66681;BME280;73718;51.366;12.350;2023-12-22T04:35:09;98005.31;;;3.30;100.00
66681;BME280;73718;51.366;12.350;2023-12-22T04:37:35;97994.94;;;3.33;100.00
66681;BME280;73718;51.366;12.350;2023-12-22T04:40:01;98019.06;;;3.31;100.00
66681;BME280;73718;51.366;12.350;2023-12-22T04:42:26;98020.78;;;3.30;100.00
66681;BME280;73718;51.366;12.350;2023-12-22T04:44:52;98000.19;;;3.27;100.00
66681;BME280;73718;51.366;12.350;2023-12-22T04:47:18;98006.19;;;3.29;100.00
66681;BME280;73718;51.366;12.350;2023-12-22T04:49:43;98001.00;;;3.32;100.00
66681;BME280;73718;51.366;12.350;2023-12-22T04:52:13;97992.38;;;3.32;100.00
66681;BME280;73718;51.366;12.350;2023-12-22T04:54:38;97988.97;;;3.30;100.00
66681;BME280;73718;51.366;12.350;2023-12-22T04:57:04;98008.78;;;3.29;100.00
66681;BME280;73718;51.366;12.350;2023-12-22T04:59:29;97996.78;;;3.24;100.00
66681;BME280;73718;51.366;12.350;2023-12-22T05:01:55;98003.69;;;3.23;100.00
66681;BME280;73718;51.366;12.350;2023-12-22T05:04:23;98019.09;;;3.28;100.00
66681;BME280;73718;51.366;12.350;2023-12-22T05:06:49;98001.00;;;3.31;100.00
66681;BME280;73718;51.366;12.350;2023-12-22T05:09:15;97994.94;;;3.33;100.00
66681;BME280;73718;51.366;12.350;2023-12-22T05:11:41;97992.47;;;3.26;100.00
66681;BME280;73718;51.366;12.350;2023-12-22T05:14:06;98008.84;;;3.23;100.00
66681;BME280;73718;51.366;12.350;2023-12-22T05:16:31;98005.44;;;3.20;100.00
66681;BME280;73718;51.366;12.350;2023-12-22T05:18:58;97996.84;;;3.19;100.00
66681;BME280;73718;51.366;12.350;2023-12-22T05:21:23;98001.25;;;3.12;100.00
66681;BME280;73718;51.366;12.350;2023-12-22T05:23:49;97985.88;;;3.06;100.00
66681;BME280;73718;51.366;12.350;2023-12-22T05:26:21;97997.94;;;3.01;100.00
66681;BME280;73718;51.366;12.350;2023-12-22T05:28:47;98004.00;;;3.00;100.00
66681;BME280;73718;51.366;12.350;2023-12-22T05:31:15;98003.88;;;3.09;100.00
66681;BME280;73718;51.366;12.350;2023-12-22T05:33:41;98018.41;;;3.15;100.00
66681;BME280;73718;51.366;12.350;2023-12-22T05:36:06;98003.72;;;3.20;100.00
66681;BME280;73718;51.366;12.350;2023-12-22T05:38:32;97999.44;;;3.21;100.00
66681;BME280;73718;51.366;12.350;2023-12-22T05:40:57;98001.22;;;3.15;100.00
66681;BME280;73718;51.366;12.350;2023-12-22T05:43:23;98002.09;;;3.14;100.00
66681;BME280;73718;51.366;12.350;2023-12-22T05:45:48;97993.41;;;3.20;100.00
66681;BME280;73718;51.366;12.350;2023-12-22T05:48:13;98001.03;;;3.28;100.00
66681;BME280;73718;51.366;12.350;2023-12-22T05:50:39;97996.66;;;3.34;100.00
66681;BME280;73718;51.366;12.350;2023-12-22T05:53:04;97994.84;;;3.39;100.00
66681;BME280;73718;51.366;12.350;2023-12-22T05:55:30;97989.63;;;3.44;100.00
66681;BME280;73718;51.366;12.350;2023-12-22T05:57:55;97983.50;;;3.50;100.00
66681;BME280;73718;51.366;12.350;2023-12-22T06:00:21;97979.09;;;3.56;100.00
66681;BME280;73718;51.366;12.350;2023-12-22T06:02:46;98010.88;;;3.63;100.00
66681;BME280;73718;51.366;12.350;2023-12-22T06:05:12;97978.94;;;3.67;100.00
66681;BME280;73718;51.366;12.350;2023-12-22T06:07:38;97977.22;;;3.67;100.00
66681;BME280;73718;51.366;12.350;2023-12-22T06:10:04;97992.78;;;3.63;100.00
66681;BME280;73718;51.366;12.350;2023-12-22T06:12:29;97977.19;;;3.69;100.00
66681;BME280;73718;51.366;12.350;2023-12-22T06:14:56;98005.50;;;3.75;100.00
66681;BME280;73718;51.366;12.350;2023-12-22T06:17:21;97996.81;;;3.79;100.00
66681;BME280;73718;51.366;12.350;2023-12-22T06:19:47;98020.03;;;3.82;100.00
66681;BME280;73718;51.366;12.350;2023-12-22T06:22:12;98009.66;;;3.85;100.00
66681;BME280;73718;51.366;12.350;2023-12-22T06:24:38;98020.00;;;3.85;100.00
66681;BME280;73718;51.366;12.350;2023-12-22T06:27:03;98023.63;;;3.72;100.00
66681;BME280;73718;51.366;12.350;2023-12-22T06:29:29;98030.78;;;3.53;100.00
66681;BME280;73718;51.366;12.350;2023-12-22T06:31:56;98034.53;;;3.32;100.00
66681;BME280;73718;51.366;12.350;2023-12-22T06:34:21;98039.84;;;3.20;100.00
66681;BME280;73718;51.366;12.350;2023-12-22T06:36:47;98057.16;;;3.12;100.00
66681;BME280;73718;51.366;12.350;2023-12-22T06:39:12;98048.75;;;2.96;100.00
66681;BME280;73718;51.366;12.350;2023-12-22T06:41:38;98053.94;;;2.95;100.00
66681;BME280;73718;51.366;12.350;2023-12-22T06:44:03;98066.00;;;2.92;100.00
66681;BME280;73718;51.366;12.350;2023-12-22T06:46:29;98065.09;;;2.98;100.00
66681;BME280;73718;51.366;12.350;2023-12-22T06:48:56;98070.25;;;2.98;100.00
66681;BME280;73718;51.366;12.350;2023-12-22T06:51:23;98059.09;;;2.96;100.00
66681;BME280;73718;51.366;12.350;2023-12-22T06:53:50;98092.66;;;2.93;100.00
66681;BME280;73718;51.366;12.350;2023-12-22T06:58:44;98063.56;;;2.80;100.00
66681;BME280;73718;51.366;12.350;2023-12-22T07:01:12;98060.16;;;2.77;100.00
66681;BME280;73718;51.366;12.350;2023-12-22T07:03:37;98079.06;;;2.77;100.00
66681;BME280;73718;51.366;12.350;2023-12-22T07:06:03;98081.63;;;2.80;100.00
66681;BME280;73718;51.366;12.350;2023-12-22T07:08:29;98091.88;;;2.86;100.00
66681;BME280;73718;51.366;12.350;2023-12-22T07:10:54;98098.75;;;2.86;100.00
66681;BME280;73718;51.366;12.350;2023-12-22T07:13:20;98104.78;;;2.86;100.00
66681;BME280;73718;51.366;12.350;2023-12-22T07:15:45;98105.63;;;2.87;100.00
66681;BME280;73718;51.366;12.350;2023-12-22T07:18:11;98093.59;;;2.86;100.00
66681;BME280;73718;51.366;12.350;2023-12-22T07:20:36;98096.19;;;2.84;100.00
66681;BME280;73718;51.366;12.350;2023-12-22T07:23:01;98097.06;;;2.83;100.00
66681;BME280;73718;51.366;12.350;2023-12-22T07:25:27;98096.25;;;2.80;100.00
66681;BME280;73718;51.366;12.350;2023-12-22T07:27:52;98092.81;;;2.79;100.00
66681;BME280;73718;51.366;12.350;2023-12-22T07:30:18;98112.50;;;2.88;100.00
66681;BME280;73718;51.366;12.350;2023-12-22T07:32:44;98114.13;;;2.95;100.00
66681;BME280;73718;51.366;12.350;2023-12-22T07:35:12;98108.06;;;2.99;100.00
66681;BME280;73718;51.366;12.350;2023-12-22T07:37:37;98114.94;;;3.00;100.00
66681;BME280;73718;51.366;12.350;2023-12-22T07:40:03;98118.41;;;2.96;100.00
66681;BME280;73718;51.366;12.350;2023-12-22T07:42:29;98115.00;;;2.96;100.00
66681;BME280;73718;51.366;12.350;2023-12-22T07:44:54;98115.84;;;2.96;100.00
66681;BME280;73718;51.366;12.350;2023-12-22T07:47:20;98108.91;;;3.00;100.00
66681;BME280;73718;51.366;12.350;2023-12-22T07:49:45;98120.09;;;3.00;100.00
66681;BME280;73718;51.366;12.350;2023-12-22T07:52:10;98107.13;;;3.05;100.00
66681;BME280;73718;51.366;12.350;2023-12-22T07:54:36;98109.66;;;3.11;100.00
66681;BME280;73718;51.366;12.350;2023-12-22T07:57:02;98108.81;;;3.10;100.00
66681;BME280;73718;51.366;12.350;2023-12-22T07:59:27;98126.84;;;3.12;100.00
66681;BME280;73718;51.366;12.350;2023-12-22T08:01:52;98122.53;;;3.12;100.00
66681;BME280;73718;51.366;12.350;2023-12-22T08:04:18;98124.25;;;3.12;100.00
66681;BME280;73718;51.366;12.350;2023-12-22T08:06:43;98155.13;;;3.21;100.00
66681;BME280;73718;51.366;12.350;2023-12-22T08:09:08;98153.19;;;3.38;100.00
66681;BME280;73718;51.366;12.350;2023-12-22T08:11:34;98205.53;;;3.53;100.00
66681;BME280;73718;51.366;12.350;2023-12-22T08:13:59;98191.69;;;3.58;100.00
66681;BME280;73718;51.366;12.350;2023-12-22T08:16:25;98180.66;;;3.46;100.00
66681;BME280;73718;51.366;12.350;2023-12-22T08:18:50;98162.66;;;3.38;100.00
66681;BME280;73718;51.366;12.350;2023-12-22T08:21:16;98190.13;;;3.45;100.00
66681;BME280;73718;51.366;12.350;2023-12-22T08:23:43;98199.56;;;3.46;100.00
66681;BME280;73718;51.366;12.350;2023-12-22T08:26:08;98192.56;;;3.59;100.00
66681;BME280;73718;51.366;12.350;2023-12-22T08:28:34;98211.38;;;3.69;100.00
66681;BME280;73718;51.366;12.350;2023-12-22T08:30:59;98179.47;;;3.71;100.00
66681;BME280;73718;51.366;12.350;2023-12-22T08:33:24;98195.72;;;3.79;100.00
66681;BME280;73718;51.366;12.350;2023-12-22T08:35:50;98214.56;;;3.87;100.00
66681;BME280;73718;51.366;12.350;2023-12-22T08:38:15;98218.03;;;3.86;100.00
66681;BME280;73718;51.366;12.350;2023-12-22T08:40:42;98237.78;;;3.89;100.00
66681;BME280;73718;51.366;12.350;2023-12-22T08:43:07;98211.00;;;3.98;99.99
66681;BME280;73718;51.366;12.350;2023-12-22T08:45:33;98250.50;;;4.06;98.19
66681;BME280;73718;51.366;12.350;2023-12-22T08:47:58;98245.94;;;4.25;96.61
66681;BME280;73718;51.366;12.350;2023-12-22T08:50:24;98230.31;;;4.31;96.02
66681;BME280;73718;51.366;12.350;2023-12-22T08:52:49;98265.75;;;4.26;95.91
66681;BME280;73718;51.366;12.350;2023-12-22T08:55:15;98252.78;;;4.27;96.68
66681;BME280;73718;51.366;12.350;2023-12-22T08:57:41;98240.81;;;4.22;97.58
66681;BME280;73718;51.366;12.350;2023-12-22T09:00:06;98236.50;;;4.22;96.60
66681;BME280;73718;51.366;12.350;2023-12-22T09:02:32;98258.03;;;4.23;96.60
66681;BME280;73718;51.366;12.350;2023-12-22T09:04:58;98249.41;;;4.24;96.51
66681;BME280;73718;51.366;12.350;2023-12-22T09:07:23;98270.94;;;4.23;99.03
66681;BME280;73718;51.366;12.350;2023-12-22T09:09:49;98288.50;;;4.01;100.00
66681;BME280;73718;51.366;12.350;2023-12-22T09:12:15;98277.47;;;3.85;100.00
66681;BME280;73718;51.366;12.350;2023-12-22T09:14:41;98305.22;;;3.67;100.00
66681;BME280;73718;51.366;12.350;2023-12-22T09:17:06;98299.28;;;3.58;100.00
66681;BME280;73718;51.366;12.350;2023-12-22T09:19:33;98293.44;;;3.44;100.00
66681;BME280;73718;51.366;12.350;2023-12-22T09:22:03;98315.00;;;3.35;100.00
66681;BME280;73718;51.366;12.350;2023-12-22T09:24:29;98295.22;;;3.37;100.00
66681;BME280;73718;51.366;12.350;2023-12-22T09:26:54;98317.63;;;3.33;100.00
66681;BME280;73718;51.366;12.350;2023-12-22T09:29:20;98344.25;;;3.38;100.00
66681;BME280;73718;51.366;12.350;2023-12-22T09:31:47;98321.69;;;3.57;100.00
66681;BME280;73718;51.366;12.350;2023-12-22T09:34:12;98342.34;;;3.57;100.00
66681;BME280;73718;51.366;12.350;2023-12-22T09:36:37;98344.19;;;3.43;100.00
66681;BME280;73718;51.366;12.350;2023-12-22T09:39:03;98364.28;;;3.10;100.00
66681;BME280;73718;51.366;12.350;2023-12-22T09:41:29;98349.97;;;2.63;100.00
66681;BME280;73718;51.366;12.350;2023-12-22T09:43:55;98339.75;;;2.45;100.00
66681;BME280;73718;51.366;12.350;2023-12-22T09:46:22;98346.69;;;2.32;100.00
66681;BME280;73718;51.366;12.350;2023-12-22T09:48:49;98339.84;;;2.27;100.00
66681;BME280;73718;51.366;12.350;2023-12-22T09:51:17;98333.88;;;2.15;100.00
66681;BME280;73718;51.366;12.350;2023-12-22T09:53:45;98350.25;;;2.01;100.00
66681;BME280;73718;51.366;12.350;2023-12-22T09:56:10;98356.28;;;1.90;100.00
66681;BME280;73718;51.366;12.350;2023-12-22T09:58:37;98331.41;;;1.91;100.00
66681;BME280;73718;51.366;12.350;2023-12-22T10:01:04;98337.47;;;1.71;100.00
66681;BME280;73718;51.366;12.350;2023-12-22T10:03:32;98331.50;;;1.65;100.00
66681;BME280;73718;51.366;12.350;2023-12-22T10:05:59;98312.63;;;1.64;100.00
66681;BME280;73718;51.366;12.350;2023-12-22T10:08:26;98301.44;;;1.68;100.00
66681;BME280;73718;51.366;12.350;2023-12-22T10:10:52;98302.28;;;1.69;100.00
66681;BME280;73718;51.366;12.350;2023-12-22T10:13:18;98304.00;;;1.70;100.00
66681;BME280;73718;51.366;12.350;2023-12-22T10:15:44;98291.13;;;1.76;100.00
66681;BME280;73718;51.366;12.350;2023-12-22T10:18:12;98294.50;;;1.83;100.00
66681;BME280;73718;51.366;12.350;2023-12-22T10:20:38;98285.03;;;1.92;100.00
66681;BME280;73718;51.366;12.350;2023-12-22T10:23:04;98291.00;;;2.01;100.00
66681;BME280;73718;51.366;12.350;2023-12-22T10:25:29;98282.38;;;2.11;100.00
66681;BME280;73718;51.366;12.350;2023-12-22T10:27:55;98290.94;;;2.19;100.00
66681;BME280;73718;51.366;12.350;2023-12-22T10:30:21;98274.56;;;2.29;100.00
66681;BME280;73718;51.366;12.350;2023-12-22T10:32:50;98286.47;;;2.49;100.00
66681;BME280;73718;51.366;12.350;2023-12-22T10:35:16;98280.38;;;2.57;100.00
66681;BME280;73718;51.366;12.350;2023-12-22T10:37:42;98276.03;;;2.65;100.00
66681;BME280;73718;51.366;12.350;2023-12-22T10:40:08;98269.97;;;2.69;100.00
66681;BME280;73718;51.366;12.350;2023-12-22T10:42:35;98269.06;;;2.80;100.00
66681;BME280;73718;51.366;12.350;2023-12-22T10:45:01;98262.91;;;2.93;100.00
66681;BME280;73718;51.366;12.350;2023-12-22T10:47:28;98242.09;;;3.11;100.00
66681;BME280;73718;51.366;12.350;2023-12-22T10:49:53;98256.53;;;3.31;100.00
66681;BME280;73718;51.366;12.350;2023-12-22T10:52:19;98246.06;;;3.46;100.00
66681;BME280;73718;51.366;12.350;2023-12-22T10:54:45;98234.63;;;3.67;100.00
66681;BME280;73718;51.366;12.350;2023-12-22T10:57:11;98236.19;;;3.82;100.00
66681;BME280;73718;51.366;12.350;2023-12-22T10:59:44;98236.03;;;3.94;100.00
66681;BME280;73718;51.366;12.350;2023-12-22T11:02:15;98247.16;;;4.01;100.00
66681;BME280;73718;51.366;12.350;2023-12-22T11:04:47;98246.94;;;4.16;100.00
66681;BME280;73718;51.366;12.350;2023-12-22T11:07:19;98251.16;;;4.22;100.00
66681;BME280;73718;51.366;12.350;2023-12-22T11:09:47;98251.00;;;4.31;100.00
66681;BME280;73718;51.366;12.350;2023-12-22T11:12:15;98242.28;;;4.38;100.00
66681;BME280;73718;51.366;12.350;2023-12-22T11:14:41;98244.72;;;4.50;100.00
66681;BME280;73718;51.366;12.350;2023-12-22T11:17:07;98226.38;;;4.66;100.00
66681;BME280;73718;51.366;12.350;2023-12-22T11:19:35;98252.00;;;4.79;100.00
66681;BME280;73718;51.366;12.350;2023-12-22T11:22:01;98237.16;;;4.91;100.00
66681;BME280;73718;51.366;12.350;2023-12-22T11:24:29;98238.72;;;5.01;100.00
66681;BME280;73718;51.366;12.350;2023-12-22T11:26:57;98213.44;;;5.17;100.00
66681;BME280;73718;51.366;12.350;2023-12-22T11:29:24;98281.38;;;5.29;100.00
66681;BME280;73718;51.366;12.350;2023-12-22T11:31:54;98231.03;;;5.44;97.87
66681;BME280;73718;51.366;12.350;2023-12-22T11:34:21;98241.38;;;5.46;100.00
66681;BME280;73718;51.366;12.350;2023-12-22T11:36:48;98225.00;;;5.44;100.00
66681;BME280;73718;51.366;12.350;2023-12-22T11:39:14;98225.00;;;5.44;100.00
66681;BME280;73718;51.366;12.350;2023-12-22T11:41:40;98207.72;;;5.46;100.00
66681;BME280;73718;51.366;12.350;2023-12-22T11:44:07;98210.31;;;5.46;100.00
66681;BME280;73718;51.366;12.350;2023-12-22T11:46:32;98204.13;;;5.51;100.00
66681;BME280;73718;51.366;12.350;2023-12-22T11:48:59;98216.13;;;5.55;100.00
66681;BME280;73718;51.366;12.350;2023-12-22T11:51:31;98211.72;;;5.60;100.00
66681;BME280;73718;51.366;12.350;2023-12-22T11:53:57;98197.84;;;5.63;100.00
66681;BME280;73718;51.366;12.350;2023-12-22T11:56:24;98181.47;;;5.62;100.00
66681;BME280;73718;51.366;12.350;2023-12-22T11:58:52;98179.66;;;5.65;100.00
66681;BME280;73718;51.366;12.350;2023-12-22T12:01:23;98190.81;;;5.68;100.00
66681;BME280;73718;51.366;12.350;2023-12-22T12:08:47;98161.03;;;5.47;100.00
66681;BME280;73718;51.366;12.350;2023-12-22T12:11:14;98171.38;;;5.49;100.00
66681;BME280;73718;51.366;12.350;2023-12-22T12:13:43;98184.41;;;5.46;100.00
66681;BME280;73718;51.366;12.350;2023-12-22T12:16:11;98180.06;;;5.45;100.00
66681;BME280;73718;51.366;12.350;2023-12-22T12:18:37;98192.28;;;5.40;100.00
66681;BME280;73718;51.366;12.350;2023-12-22T12:21:02;98192.47;;;5.30;100.00
66681;BME280;73718;51.366;12.350;2023-12-22T12:23:28;98200.44;;;5.18;100.00
66681;BME280;73718;51.366;12.350;2023-12-22T12:25:54;98209.22;;;5.09;100.00
66681;BME280;73718;51.366;12.350;2023-12-22T12:28:31;98210.25;;;5.01;100.00
66681;BME280;73718;51.366;12.350;2023-12-22T12:31:00;98244.09;;;4.90;100.00
66681;BME280;73718;51.366;12.350;2023-12-22T12:33:28;98225.19;;;4.29;100.00
66681;BME280;73718;51.366;12.350;2023-12-22T12:35:58;98213.22;;;3.57;100.00
66681;BME280;73718;51.366;12.350;2023-12-22T12:38:48;98210.16;;;3.25;100.00
66681;BME280;73718;51.366;12.350;2023-12-22T12:41:46;98209.50;;;3.01;100.00
66681;BME280;73718;51.366;12.350;2023-12-22T12:44:11;98213.13;;;2.85;100.00
66681;BME280;73718;51.366;12.350;2023-12-22T12:46:39;98213.25;;;2.71;100.00
66681;BME280;73718;51.366;12.350;2023-12-22T12:49:05;98219.41;;;2.52;100.00
66681;BME280;73718;51.366;12.350;2023-12-22T12:51:38;98215.13;;;2.48;100.00